Time;durP1;ratioP1;P1;durP2;ratioP2;P2;SDS_P1;SDS_P2;PMS_P1;PMS_P2;Temp;Humidity;BMP_temperature;BMP_pressure;BME280_temperature;BME280_humidity;BME280_pressure;Samples;Min_cycle;Max_cycle;Signal;HPM_P1;HPM_P2
2021/04/16 00:04:19;;;;;;;14.52;3.35;;;3.60;92.80;;;;;;10475831;28;20046;-70
2021/04/16 00:09:23;;;;;;;5.28;2.67;;;2.90;92.90;;;;;;10476078;28;20038;-69
2021/04/16 00:14:24;;;;;;;8.93;2.95;;;3.20;93.40;;;;;;10475080;28;20087;-70
2021/04/16 00:19:26;;;;;;;8.43;2.78;;;2.60;93.20;;;;;;10473736;28;20143;-68
2021/04/16 00:24:29;;;;;;;5.43;3.05;;;2.90;90.70;;;;;;10474664;28;20169;-72
2021/04/16 00:29:31;;;;;;;5.22;2.83;;;;;;;;;;10471008;28;20140;-70
2021/04/16 00:34:32;;;;;;;5.95;3.33;;;2.40;93.40;;;;;;10473609;28;20058;-70
2021/04/16 00:39:34;;;;;;;5.28;3.25;;;2.50;93.60;;;;;;10472101;28;20399;-70
2021/04/16 00:44:37;;;;;;;5.30;3.08;;;2.60;94.10;;;;;;10472080;28;20055;-68
2021/04/16 00:49:40;;;;;;;5.13;3.50;;;2.40;91.30;;;;;;10472154;28;20205;-69
2021/04/16 00:54:43;;;;;;;8.60;4.57;;;2.10;94.00;;;;;;10474540;28;20143;-68
2021/04/16 00:59:49;;;;;;;5.25;3.65;;;2.20;95.00;;;;;;10475285;28;20059;-69
2021/04/16 01:04:51;;;;;;;6.78;3.00;;;;;;;;;;10474693;28;20125;-68
2021/04/16 01:09:53;;;;;;;10.05;3.28;;;1.50;93.70;;;;;;10464712;28;20044;-69
2021/04/16 01:15:02;;;;;;;6.00;3.33;;;1.70;95.30;;;;;;10473497;28;20056;-68
2021/04/16 01:20:08;;;;;;;11.40;3.15;;;1.70;92.90;;;;;;10473651;28;20051;-68
2021/04/16 01:25:11;;;;;;;4.45;2.70;;;1.70;93.00;;;;;;10474276;28;20076;-69
2021/04/16 01:30:16;;;;;;;4.25;2.97;;;1.60;93.10;;;;;;10473994;28;20700;-72
2021/04/16 01:35:20;;;;;;;6.47;3.35;;;1.70;93.10;;;;;;10473021;28;20438;-71
2021/04/16 01:40:24;;;;;;;7.47;4.30;;;1.10;95.80;;;;;;10473136;28;20083;-70
2021/04/16 01:45:29;;;;;;;6.13;2.95;;;1.10;93.40;;;;;;10472344;28;20101;-71
2021/04/16 01:50:31;;;;;;;5.77;3.00;;;;;;;;;;10472096;28;20044;-69
2021/04/16 01:55:34;;;;;;;4.90;3.30;;;1.30;96.50;;;;;;10474080;28;20147;-70
2021/04/16 02:00:38;;;;;;;9.43;3.65;;;0.90;96.50;;;;;;10473925;28;20044;-68
2021/04/16 02:05:40;;;;;;;6.50;4.18;;;;;;;;;;10472754;28;20052;-68
2021/04/16 02:10:43;;;;;;;11.20;3.23;;;0.70;96.70;;;;;;10472821;28;20131;-69
2021/04/16 02:15:44;;;;;;;8.15;3.85;;;0.90;97.10;;;;;;10471871;28;20056;-70
2021/04/16 02:20:46;;;;;;;8.23;4.05;;;;;;;;;;10472633;28;20837;-70
2021/04/16 02:25:49;;;;;;;9.63;3.57;;;0.80;96.90;;;;;;10474135;28;20974;-72
2021/04/16 02:30:50;;;;;;;;;;;0.90;94.50;;;;;;10475340;28;20044;-70
2021/04/16 02:35:52;;;;;;;10.35;3.90;;;;;;;;;;10471048;28;19926;-69
2021/04/16 02:40:55;;;;;;;6.30;3.57;;;0.60;95.20;;;;;;10472595;28;20052;-70
2021/04/16 02:45:56;;;;;;;11.33;4.37;;;0.60;97.40;;;;;;10471653;28;20066;-69
2021/04/16 02:50:58;;;;;;;9.00;4.23;;;;;;;;;;10473233;28;20075;-69
2021/04/16 02:56:00;;;;;;;5.20;3.63;;;0.30;97.10;;;;;;10472858;28;20117;-69
2021/04/16 03:01:01;;;;;;;5.37;3.17;;;0.20;97.20;;;;;;10472782;28;20037;-69
2021/04/16 03:06:03;;;;;;;6.07;3.50;;;0.10;94.50;;;;;;10471521;28;20060;-69
2021/04/16 03:11:06;;;;;;;9.40;4.03;;;0.20;97.70;;;;;;10471445;28;20048;-69
2021/04/16 03:16:08;;;;;;;7.30;3.85;;;;;;;;;;10470938;28;20076;-69
2021/04/16 03:21:09;;;;;;;6.57;3.93;;;;;;;;;;10473104;28;20040;-69
2021/04/16 03:26:11;;;;;;;11.43;5.50;;;0.10;95.70;;;;;;10470787;28;20040;-68
2021/04/16 03:31:13;;;;;;;6.80;3.90;;;;;;;;;;10471970;28;20480;-68
2021/04/16 03:36:15;;;;;;;7.70;3.67;;;0.10;98.30;;;;;;10470086;28;20168;-68
2021/04/16 03:41:17;;;;;;;8.27;4.03;;;0.00;95.30;;;;;;10471114;28;20626;-68
2021/04/16 03:46:19;;;;;;;6.53;3.75;;;;;;;;;;10470872;28;20191;-68
2021/04/16 03:51:21;;;;;;;10.47;4.33;;;;;;;;;;10471327;28;20408;-70
2021/04/16 03:56:23;;;;;;;10.20;4.47;;;-0.20;98.60;;;;;;10471953;28;20151;-69
2021/04/16 04:01:25;;;;;;;7.53;4.22;;;;;;;;;;10471217;28;20092;-70
2021/04/16 04:06:26;;;;;;;8.27;4.80;;;0.00;98.80;;;;;;10473958;28;20040;-69
2021/04/16 04:11:29;;;;;;;9.40;4.40;;;-0.20;99.00;;;;;;10474478;28;20045;-68
2021/04/16 04:16:30;;;;;;;11.60;5.40;;;0.10;99.00;;;;;;10474935;28;20044;-68
2021/04/16 04:21:32;;;;;;;9.13;4.37;;;0.30;96.60;;;;;;10475949;28;20067;-69
2021/04/16 04:26:34;;;;;;;7.27;4.10;;;0.00;96.20;;;;;;10474735;28;20092;-70
2021/04/16 04:31:36;;;;;;;7.50;4.37;;;0.00;96.40;;;;;;10471289;28;20044;-67
2021/04/16 04:36:38;;;;;;;11.80;4.47;;;0.20;99.00;;;;;;10465848;28;20071;-69
2021/04/16 04:41:41;;;;;;;9.40;4.30;;;0.50;96.60;;;;;;10468393;28;20055;-70
2021/04/16 04:46:43;;;;;;;8.13;4.32;;;;;;;;;;10471131;28;20101;-68
2021/04/16 04:51:45;;;;;;;11.17;3.87;;;;;;;;;;10470328;28;20439;-68
2021/04/16 04:56:47;;;;;;;8.10;3.67;;;1.00;99.40;;;;;;10474722;28;20114;-68
2021/04/16 05:01:48;;;;;;;6.10;3.20;;;;;;;;;;10468576;28;20253;-69
2021/04/16 05:06:50;;;;;;;7.03;4.20;;;1.30;96.90;;;;;;10463706;28;20061;-69
2021/04/16 05:11:52;;;;;;;9.07;3.60;;;1.60;99.20;;;;;;10473821;28;20136;-70
2021/04/16 05:16:53;;;;;;;6.10;3.47;;;1.40;98.80;;;;;;10472570;28;20040;-69
2021/04/16 05:21:57;;;;;;;4.40;2.77;;;2.10;99.10;;;;;;10473895;28;20041;-70
2021/04/16 05:27:00;;;;;;;14.32;3.30;;;3.80;98.50;;;;;;10463551;28;20045;-69
2021/04/16 05:32:02;;;;;;;8.55;2.70;;;;;;;;;;10463418;28;20084;-68
2021/04/16 05:37:04;;;;;;;7.28;2.45;;;6.50;91.70;;;;;;10461916;28;21400;-68
2021/04/16 05:42:07;;;;;;;8.23;2.57;;;9.00;82.60;;;;;;10467881;28;20049;-68
2021/04/16 05:47:09;;;;;;;8.52;2.72;;;11.00;67.60;;;;;;10470200;28;20124;-68
2021/04/16 05:52:10;;;;;;;5.03;2.22;;;12.20;66.30;;;;;;10467422;28;20368;-69
2021/04/16 05:57:13;;;;;;;6.47;2.80;;;13.50;62.40;;;;;;10461413;28;20048;-69
2021/04/16 06:02:25;;;;;;;5.23;2.37;;;13.60;57.50;;;;;;10470421;28;20043;-69
2021/04/16 06:07:27;;;;;;;4.60;2.03;;;15.80;54.50;;;;;;10468942;28;20055;-70
2021/04/16 06:12:29;;;;;;;7.20;2.17;;;16.40;47.70;;;;;;10470374;28;20064;-69
2021/04/16 06:17:30;;;;;;;7.38;2.50;;;16.30;48.10;;;;;;10468942;28;20103;-70
2021/04/16 06:22:32;;;;;;;6.32;2.47;;;17.30;45.40;;;;;;10470002;28;20044;-68
2021/04/16 06:27:34;;;;;;;4.85;2.05;;;19.00;44.60;;;;;;10463255;28;20056;-69
2021/04/16 06:32:35;;;;;;;3.33;1.90;;;18.70;40.20;;;;;;10462029;28;20052;-71
2021/04/16 06:37:37;;;;;;;6.63;2.00;;;19.50;39.70;;;;;;10467632;28;20056;-68
2021/04/16 06:42:39;;;;;;;7.45;2.22;;;19.50;40.40;;;;;;10465562;28;20488;-68
2021/04/16 06:47:50;;;;;;;4.88;1.55;;;19.70;36.30;;;;;;10465884;28;20492;-69
2021/04/16 06:52:59;;;;;;;3.55;1.58;;;20.10;35.80;;;;;;10465408;28;20047;-70
2021/04/16 06:58:05;;;;;;;3.10;1.50;;;20.60;34.30;;;;;;10463496;28;20529;-71
2021/04/16 07:03:14;;;;;;;4.22;1.80;;;20.80;33.50;;;;;;10461098;28;20044;-67
2021/04/16 07:08:28;;;;;;;4.88;2.10;;;22.80;33.60;;;;;;10461176;28;20123;-67
2021/04/16 07:13:34;;;;;;;4.55;1.65;;;21.10;32.80;;;;;;10464676;28;20186;-67
2021/04/16 07:18:38;;;;;;;6.57;1.83;;;21.70;31.90;;;;;;10467787;28;20053;-67
2021/04/16 07:23:46;;;;;;;6.25;1.85;;;22.20;30.80;;;;;;10467837;28;20068;-69
2021/04/16 07:28:51;;;;;;;6.05;2.38;;;22.80;30.80;;;;;;10466440;28;20346;-68
2021/04/16 07:33:53;;;;;;;7.68;2.22;;;22.90;33.90;;;;;;10465773;28;20063;-64
2021/04/16 07:39:05;;;;;;;6.70;2.25;;;23.30;29.30;;;;;;10469343;28;20492;-66
2021/04/16 07:44:18;;;;;;;;;;;23.20;29.20;;;;;;10476867;28;20037;-66
2021/04/16 07:49:28;;;;;;;7.75;2.13;;;23.50;29.10;;;;;;10475679;28;20425;-66
2021/04/16 07:54:31;;;;;;;4.07;1.60;;;23.30;28.40;;;;;;10473738;28;20045;-64
2021/04/16 07:59:54;;;;;;;4.88;2.08;;;24.30;28.60;;;;;;10470342;28;20426;-66
2021/04/16 08:04:56;;;;;;;8.20;1.85;;;24.40;28.50;;;;;;10473638;28;20472;-68
2021/04/16 08:09:58;;;;;;;5.97;1.55;;;23.20;27.90;;;;;;10475373;28;20166;-67
2021/04/16 08:15:27;;;;;;;4.90;1.80;;;24.70;27.90;;;;;;10474731;28;20098;-66
2021/04/16 08:20:37;;;;;;;3.35;1.88;;;23.70;27.00;;;;;;10473372;28;20134;-67
2021/04/16 08:25:44;;;;;;;4.85;2.05;;;23.50;26.50;;;;;;10477134;28;20052;-67
2021/04/16 08:30:52;;;;;;;3.63;1.65;;;23.30;27.00;;;;;;10475464;28;20056;-67
2021/04/16 08:36:00;;;;;;;4.70;1.83;;;23.30;26.40;;;;;;10473643;28;20056;-68
2021/04/16 08:41:04;;;;;;;5.97;1.88;;;23.80;26.60;;;;;;10474584;28;20718;-66
2021/04/16 08:46:19;;;;;;;5.00;1.67;;;23.80;26.40;;;;;;10472381;28;20063;-65
2021/04/16 08:51:25;;;;;;;9.68;1.92;;;23.80;26.90;;;;;;10475101;28;20131;-67
2021/04/16 08:56:29;;;;;;;4.93;1.50;;;24.00;26.60;;;;;;10474316;28;20256;-69
2021/04/16 09:01:36;;;;;;;7.50;1.60;;;23.70;26.00;;;;;;10470609;28;20121;-64
2021/04/16 09:06:47;;;;;;;3.75;1.55;;;23.60;26.60;;;;;;10472900;28;20623;-65
2021/04/16 09:11:53;;;;;;;;;;;23.40;26.80;;;;;;10472779;28;20059;-66
2021/04/16 09:16:56;;;;;;;2.95;1.65;;;23.40;26.50;;;;;;10472064;28;20009;-63
2021/04/16 09:22:21;;;;;;;3.30;1.50;;;23.80;26.00;;;;;;10473353;28;20063;-65
2021/04/16 09:27:38;;;;;;;6.80;2.05;;;23.30;27.10;;;;;;10471709;28;20068;-64
2021/04/16 09:32:48;;;;;;;3.95;1.98;;;23.30;26.70;;;;;;10469428;28;20751;-67
2021/04/16 09:38:37;;;;;;;10.40;2.10;;;23.00;26.50;;;;;;10469901;28;20075;-66
2021/04/16 09:43:39;;;;;;;7.47;2.20;;;21.20;28.40;;;;;;10471724;28;20087;-65
2021/04/16 09:48:51;;;;;;;5.10;2.08;;;22.60;27.40;;;;;;10470521;28;20040;-64
2021/04/16 09:54:26;;;;;;;6.38;2.60;;;20.70;28.50;;;;;;10468203;28;20078;-66
2021/04/16 09:59:30;;;;;;;2.47;1.80;;;19.20;29.20;;;;;;10471010;28;20057;-66
2021/04/16 10:04:59;;;;;;;3.55;1.80;;;18.10;31.40;;;;;;10469081;28;20174;-65
2021/04/16 10:10:07;;;;;;;4.05;2.38;;;16.60;34.50;;;;;;10460642;28;20052;-66
2021/04/16 10:15:26;;;;;;;10.60;1.98;;;15.60;35.20;;;;;;10468864;28;20081;-67
2021/04/16 10:20:30;;;;;;;7.53;2.47;;;14.70;38.20;;;;;;10470198;28;20816;-67
2021/04/16 12:40:29;;;;;;;9.25;2.58;;;18.10;41.20;;;;;;10475170;28;20048;-66
2021/04/16 12:45:32;;;;;;;9.97;2.60;;;17.80;44.30;;;;;;10476036;28;20098;-67
2021/04/16 12:50:33;;;;;;;12.60;2.75;;;17.60;44.50;;;;;;10474706;28;20396;-63
2021/04/16 12:55:34;;;;;;;14.90;3.20;;;17.60;43.90;;;;;;10474879;28;21403;-64
2021/04/16 13:00:40;;;;;;;16.17;3.35;;;17.40;46.00;;;;;;10473834;28;20047;-64
2021/04/16 13:05:42;;;;;;;11.50;3.25;;;17.30;46.10;;;;;;10474611;28;20162;-65
2021/04/16 13:10:44;;;;;;;10.27;2.90;;;17.20;47.10;;;;;;10474881;28;20087;-66
2021/04/16 13:15:48;;;;;;;18.03;2.70;;;17.10;46.50;;;;;;10472431;28;20139;-66
2021/04/16 13:20:50;;;;;;;14.73;2.97;;;17.10;47.40;;;;;;10475255;28;20064;-66
2021/04/16 13:25:52;;;;;;;12.07;2.90;;;17.30;47.00;;;;;;10473046;28;20048;-67
2021/04/16 13:30:54;;;;;;;18.15;3.50;;;17.30;45.20;;;;;;10473695;28;20354;-64
2021/04/16 13:35:56;;;;;;;13.02;3.13;;;15.90;47.70;;;;;;10470667;28;20094;-65
2021/04/16 13:41:00;;;;;;;21.52;3.65;;;15.60;49.40;;;;;;10473624;28;20163;-67
2021/04/16 13:46:05;;;;;;;13.60;2.40;;;15.60;48.50;;;;;;10473356;28;20054;-68
2021/04/16 13:51:06;;;;;;;15.30;2.65;;;15.50;49.50;;;;;;10472640;28;20151;-68
2021/04/16 13:56:08;;;;;;;19.48;2.78;;;15.80;46.00;;;;;;10470579;28;20040;-65
2021/04/16 14:01:11;;;;;;;17.30;2.77;;;14.90;49.10;;;;;;10472831;28;20113;-64
2021/04/16 14:06:16;;;;;;;12.65;3.25;;;14.10;52.30;;;;;;10470887;28;21529;-67
2021/04/16 14:11:17;;;;;;;12.30;2.75;;;14.20;51.90;;;;;;10471896;28;20056;-66
2021/04/16 14:16:26;;;;;;;11.98;2.80;;;14.20;50.60;;;;;;10471714;28;20481;-66
2021/04/16 14:21:29;;;;;;;14.40;3.42;;;14.20;51.60;;;;;;10470965;28;20076;-66
2021/04/16 14:26:30;;;;;;;;;;;14.10;52.50;;;;;;10472627;28;20506;-65
2021/04/16 14:31:33;;;;;;;15.23;3.63;;;14.10;50.30;;;;;;10471090;28;19956;-65
2021/04/16 14:36:35;;;;;;;11.45;2.85;;;13.90;47.60;;;;;;10470641;28;20060;-66
2021/04/16 14:41:37;;;;;;;12.88;2.63;;;13.70;47.20;;;;;;10471297;28;20041;-64
2021/04/16 14:46:39;;;;;;;;;;;14.30;48.50;;;;;;10471706;28;20400;-65
2021/04/16 14:51:41;;;;;;;10.45;3.00;;;13.70;49.20;;;;;;10468760;28;20529;-66
2021/04/16 14:56:42;;;;;;;11.18;2.30;;;13.60;50.90;;;;;;10470733;28;20067;-66
2021/04/16 15:01:45;;;;;;;14.77;2.75;;;13.50;50.10;;;;;;10470334;28;20170;-64
2021/04/16 15:06:47;;;;;;;13.48;2.45;;;13.30;50.90;;;;;;10471027;28;20139;-65
2021/04/16 15:11:50;;;;;;;8.57;2.27;;;13.30;50.80;;;;;;10470213;28;20446;-66
2021/04/16 15:16:53;;;;;;;15.57;2.58;;;13.20;51.40;;;;;;10470135;28;20995;-65
2021/04/16 15:21:55;;;;;;;12.10;2.53;;;13.00;51.60;;;;;;10469874;28;20052;-65
2021/04/16 15:26:57;;;;;;;13.18;2.95;;;13.00;52.30;;;;;;10469903;28;20048;-66
2021/04/16 15:32:00;;;;;;;16.23;2.75;;;13.00;52.30;;;;;;10469313;28;20060;-66
2021/04/16 15:47:51;;;;;;;10.88;2.10;;;13.10;49.80;;;;;;10468256;28;20036;-65
2021/04/16 15:52:53;;;;;;;16.10;2.88;;;12.60;50.30;;;;;;10469230;28;20049;-66
2021/04/16 15:57:54;;;;;;;6.75;2.00;;;12.30;51.30;;;;;;10469541;28;20150;-64
2021/04/16 16:02:57;;;;;;;10.60;2.33;;;12.10;50.10;;;;;;10471126;28;20040;-64
2021/04/16 16:07:59;;;;;;;15.87;3.00;;;11.90;49.90;;;;;;10474373;28;20056;-65
2021/04/16 16:13:03;;;;;;;8.82;2.78;;;11.80;49.70;;;;;;10472538;28;20052;-64
2021/04/16 16:18:09;;;;;;;7.28;2.58;;;11.70;50.30;;;;;;10471567;28;20044;-66
2021/04/16 16:23:13;;;;;;;9.07;2.75;;;11.60;51.70;;;;;;10474451;28;20036;-65
2021/04/16 16:28:17;;;;;;;12.15;3.13;;;11.60;52.50;;;;;;10474961;28;20090;-67
2021/04/16 16:33:19;;;;;;;10.00;2.92;;;11.40;53.30;;;;;;10474530;28;20549;-67
2021/04/16 16:38:22;;;;;;;7.10;2.67;;;11.30;53.80;;;;;;10475535;28;20052;-67
2021/04/16 16:43:27;;;;;;;9.07;2.65;;;11.10;53.70;;;;;;10476210;28;20478;-67
2021/04/16 16:48:29;;;;;;;9.40;2.22;;;11.00;54.30;;;;;;10471579;28;20064;-67
2021/04/16 16:53:30;;;;;;;8.60;2.47;;;10.80;56.20;;;;;;10475951;28;20152;-66
2021/04/16 16:58:37;;;;;;;7.10;2.28;;;9.70;56.00;;;;;;10468532;28;20048;-67
2021/04/16 17:03:39;;;;;;;9.48;2.00;;;10.50;57.40;;;;;;10470190;28;20524;-67
2021/04/16 17:08:40;;;;;;;11.10;1.67;;;10.30;58.00;;;;;;10469627;28;20040;-68
2021/04/16 17:13:42;;;;;;;7.45;2.33;;;10.20;58.30;;;;;;10471155;28;20056;-67
2021/04/16 17:18:48;;;;;;;10.65;2.00;;;10.10;60.60;;;;;;10469259;28;20048;-67
2021/04/16 17:23:49;;;;;;;7.57;1.88;;;9.90;62.50;;;;;;10468666;28;20052;-68
2021/04/16 17:28:50;;;;;;;12.02;1.75;;;9.60;64.60;;;;;;10471876;28;20056;-67
2021/04/16 17:33:53;;;;;;;9.63;1.55;;;9.40;66.20;;;;;;10467038;28;20242;-66
2021/04/16 17:38:54;;;;;;;9.77;1.95;;;9.40;66.80;;;;;;10471064;28;20048;-67
2021/04/16 17:43:57;;;;;;;8.40;1.50;;;9.20;67.80;;;;;;10472164;28;20484;-67
2021/04/16 17:48:59;;;;;;;6.25;1.80;;;9.00;69.80;;;;;;10470886;28;20080;-68
2021/04/16 17:54:01;;;;;;;10.68;2.22;;;8.90;73.20;;;;;;10470034;28;20055;-67
2021/04/16 17:59:06;;;;;;;8.77;1.90;;;8.70;75.10;;;;;;10471112;28;20039;-66
2021/04/16 18:04:09;;;;;;;6.80;1.77;;;8.60;77.30;;;;;;10471254;28;20055;-66
2021/04/16 18:09:11;;;;;;;;;;;8.40;79.30;;;;;;10466596;28;20480;-65
2021/04/16 18:14:14;;;;;;;11.65;2.30;;;8.30;80.80;;;;;;10466472;28;19934;-64
2021/04/16 18:19:16;;;;;;;15.20;1.85;;;8.10;82.50;;;;;;10467183;28;20032;-66
2021/04/16 18:24:28;;;;;;;15.50;2.10;;;9.00;84.50;;;;;;10464597;28;20491;-67
2021/04/16 18:29:31;;;;;;;13.93;2.50;;;7.80;85.50;;;;;;10466094;28;20041;-66
2021/04/16 18:34:33;;;;;;;13.90;2.00;;;7.60;86.70;;;;;;10464624;28;20087;-64
2021/04/16 18:39:37;;;;;;;11.68;2.28;;;7.50;87.50;;;;;;10465006;28;20052;-66
2021/04/16 18:44:41;;;;;;;11.13;2.28;;;7.40;88.80;;;;;;10465203;28;20052;-68
2021/04/16 18:49:45;;;;;;;14.32;2.63;;;7.30;89.90;;;;;;10465758;28;20072;-67
2021/04/16 18:54:46;;;;;;;12.77;2.35;;;7.20;90.40;;;;;;10465307;28;20047;-65
2021/04/16 18:59:48;;;;;;;16.08;2.83;;;7.10;90.90;;;;;;10464766;28;20568;-67
2021/04/16 19:04:50;;;;;;;28.80;3.00;;;7.00;91.40;;;;;;10463879;28;20485;-65
2021/04/16 19:09:55;;;;;;;22.02;2.53;;;6.90;92.00;;;;;;10465263;28;20669;-65
2021/04/16 19:14:56;;;;;;;11.48;1.95;;;6.90;92.60;;;;;;10465165;28;20044;-65
2021/04/16 19:19:59;;;;;;;10.13;2.40;;;6.80;93.30;;;;;;10464404;28;20051;-67
2021/04/16 19:25:04;;;;;;;23.33;2.47;;;6.70;93.90;;;;;;10461668;28;20092;-68
2021/04/16 19:30:08;;;;;;;14.90;3.15;;;6.60;94.50;;;;;;10459445;28;20474;-67
2021/04/16 19:35:12;;;;;;;19.73;3.08;;;6.50;95.10;;;;;;10463789;28;20074;-67
2021/04/16 19:40:18;;;;;;;11.75;2.58;;;6.50;95.60;;;;;;10470777;28;21186;-67
2021/04/16 19:45:21;;;;;;;15.77;2.60;;;6.40;98.00;;;;;;10471762;28;20079;-67
2021/04/16 20:17:30;;;;;;;18.45;2.90;;;6.20;99.70;;;;;;10467270;28;20049;-68
2021/04/16 20:22:34;;;;;;;22.25;4.32;;;6.10;98.00;;;;;;10468351;28;20567;-69
2021/04/16 20:27:35;;;;;;;16.85;3.05;;;6.10;98.10;;;;;;10464245;28;20056;-68
2021/04/16 20:32:39;;;;;;;23.90;4.45;;;6.10;98.20;;;;;;10464907;28;20051;-68
2021/04/16 20:37:47;;;;;;;22.55;4.80;;;4.70;98.00;;;;;;10468671;28;20791;-66
2021/04/16 20:42:48;;;;;;;18.15;3.58;;;6.10;99.90;;;;;;10465282;28;20080;-66
2021/04/16 20:47:51;;;;;;;24.20;3.85;;;5.80;98.60;;;;;;10465751;28;20056;-67
2021/04/16 20:52:54;;;;;;;9.63;3.77;;;5.80;98.80;;;;;;10464969;28;20033;-68
2021/04/16 20:57:55;;;;;;;11.32;3.92;;;5.80;99.10;;;;;;10467357;28;20124;-67
2021/04/16 21:03:22;;;;;;;17.15;3.95;;;5.80;99.20;;;;;;10466794;28;20048;-67
2021/04/16 21:08:34;;;;;;;20.30;4.47;;;5.80;99.30;;;;;;10466556;28;20139;-68
2021/04/16 21:13:38;;;;;;;19.47;3.47;;;5.80;99.30;;;;;;10466746;28;20713;-67
2021/04/16 21:18:42;;;;;;;11.00;3.63;;;5.80;99.20;;;;;;10465509;28;20135;-67
2021/04/16 21:23:47;;;;;;;11.30;3.03;;;5.70;99.00;;;;;;10468177;28;20062;-68
2021/04/16 21:28:49;;;;;;;19.00;4.32;;;5.60;98.90;;;;;;10468489;28;20062;-68
2021/04/16 21:33:51;;;;;;;15.57;3.33;;;5.50;99.90;;;;;;10467469;28;20062;-67
2021/04/16 21:38:54;;;;;;;18.50;4.07;;;5.50;98.50;;;;;;10468761;28;20115;-67
2021/04/16 21:43:56;;;;;;;12.85;4.68;;;5.40;98.60;;;;;;10461436;28;20917;-69
2021/04/16 21:49:00;;;;;;;14.60;4.18;;;5.40;98.90;;;;;;10457433;28;20050;-69
2021/04/16 21:54:06;;;;;;;20.58;5.13;;;5.40;99.00;;;;;;10467127;28;20162;-69
2021/04/16 21:59:08;;;;;;;12.75;4.68;;;5.40;99.00;;;;;;10468261;28;20051;-68
2021/04/16 22:04:11;;;;;;;17.50;4.45;;;5.30;99.10;;;;;;10469983;28;20053;-67
2021/04/16 22:09:19;;;;;;;19.42;4.50;;;5.30;99.20;;;;;;10468891;28;20081;-67
2021/04/16 22:14:28;;;;;;;21.63;4.13;;;5.30;99.10;;;;;;10468807;28;20658;-68
2021/04/16 22:19:31;;;;;;;14.48;4.35;;;5.20;98.90;;;;;;10467698;28;20045;-67
2021/04/16 22:24:41;;;;;;;12.27;3.97;;;5.10;99.10;;;;;;10466764;28;20072;-68
2021/04/16 22:29:43;;;;;;;15.73;3.33;;;5.00;99.00;;;;;;10466480;28;20044;-68
2021/04/16 22:34:44;;;;;;;14.13;3.83;;;5.00;99.10;;;;;;10465581;28;20079;-67
2021/04/16 22:39:47;;;;;;;12.90;3.85;;;5.00;99.00;;;;;;10463500;28;20043;-68
2021/04/16 22:44:54;;;;;;;16.23;3.88;;;4.90;98.90;;;;;;10465296;28;20500;-69
2021/04/16 22:50:00;;;;;;;7.63;3.22;;;4.90;98.70;;;;;;10463800;28;20455;-67
2021/04/16 22:55:08;;;;;;;11.32;3.72;;;4.80;98.70;;;;;;10464813;28;20084;-67
2021/04/16 23:00:14;;;;;;;18.15;4.20;;;4.80;98.80;;;;;;10464807;28;20076;-68
2021/04/16 23:05:30;;;;;;;12.27;4.07;;;4.80;98.70;;;;;;10464301;28;20076;-67
2021/04/16 23:10:36;;;;;;;11.85;3.88;;;4.80;98.70;;;;;;10464284;28;20093;-69
2021/04/16 23:15:39;;;;;;;11.32;3.28;;;4.90;98.40;;;;;;10469047;28;20052;-67
2021/04/16 23:20:40;;;;;;;12.82;4.32;;;4.80;98.00;;;;;;10469583;28;20048;-67
2021/04/16 23:25:44;;;;;;;10.65;3.42;;;4.70;97.70;;;;;;10469766;28;20512;-67
2021/04/16 23:30:49;;;;;;;12.80;2.55;;;4.80;97.30;;;;;;10471140;28;20083;-68
2021/04/16 23:35:50;;;;;;;5.25;2.80;;;4.70;96.80;;;;;;10469439;28;20055;-68
2021/04/16 23:40:53;;;;;;;6.53;2.00;;;4.60;96.30;;;;;;10470960;28;20115;-68
2021/04/16 23:45:54;;;;;;;12.35;1.85;;;4.50;96.00;;;;;;10470869;28;20409;-66
2021/04/16 23:50:55;;;;;;;6.88;2.15;;;4.50;95.60;;;;;;10470891;28;20169;-67
2021/04/16 23:55:57;;;;;;;5.65;2.28;;;4.50;95.20;;;;;;10469526;28;20059;-68
